CheckWX is a tool to help pilots better visualize weather data.  It is not intended as a substitute for an official pre-flight weather briefing.

06:46:08 UTC

KBRL METAR
Southeast Iowa Regional Airport
Burlington, Iowa, USA
Current

16 mins ago

KBRL 160630Z AUTO 22005KT 9SM FEW003 19/18 A2975 RMK AO2 T01890178
Observed
Jun-16 @ 06:30 UTC
Wind
  • 220° at 5 KTS
Visibility
9 SM
Flight Rules
VFR
Cloud Levels
  • Few at 300' AGL
Temperature
19°C / 66°F
Dewpoint
18°C / 64°F
Humidity
94%
Altimeter
29.75" Hg
Pressure
1007.42 hPa
Previous

53 mins ago

KBRL 160553Z AUTO 21006KT 9SM CLR 19/17 A2975 RMK AO2 SLP071 60052 T01890172 10256 20183 402720172 55000
Observed
Jun-16 @ 05:53 UTC
Wind
  • 210° at 6 KTS
Visibility
9 SM
Flight Rules
VFR
Cloud Levels
  • Clear skies
Temperature
19°C / 66°F
Dewpoint
17°C / 63°F
Humidity
88%
Altimeter
29.75" Hg
Pressure
1007.42 hPa
Previous

2 hours ago

KBRL 160453Z AUTO 31004KT 10SM FEW090 19/18 A2972 RMK AO2 RAE35 SLP061 P0002 T01890178
Observed
Jun-16 @ 04:53 UTC
Wind
  • 310° at 4 KTS
Visibility
10 SM
Flight Rules
VFR
Cloud Levels
  • Few at 9,000' AGL
Temperature
19°C / 66°F
Dewpoint
18°C / 64°F
Humidity
94%
Altimeter
29.72" Hg
Pressure
1006.42 hPa
Current Rain
0.02"